sensor_id;sensor_type;location;lat;lon;timestamp;pressure;altitude;pressure_sealevel;temperature
70668;BMP280;58242;51.250;-1.118;2023-03-01T00:01:06;101877.50;;;12.17
70668;BMP280;58242;51.250;-1.118;2023-03-01T00:03:32;101880.47;;;12.15
70668;BMP280;58242;51.250;-1.118;2023-03-01T00:05:57;101879.19;;;12.13
70668;BMP280;58242;51.250;-1.118;2023-03-01T00:08:23;101874.88;;;12.12
70668;BMP280;58242;51.250;-1.118;2023-03-01T00:10:48;101874.38;;;12.10
70668;BMP280;58242;51.250;-1.118;2023-03-01T00:13:14;101866.91;;;12.07
70668;BMP280;58242;51.250;-1.118;2023-03-01T00:15:40;101873.06;;;12.08
70668;BMP280;58242;51.250;-1.118;2023-03-01T00:18:07;101879.25;;;12.08
70668;BMP280;58242;51.250;-1.118;2023-03-01T00:20:33;101870.69;;;12.06
70668;BMP280;58242;51.250;-1.118;2023-03-01T00:22:58;101872.88;;;12.04
70668;BMP280;58242;51.250;-1.118;2023-03-01T00:25:24;101885.19;;;12.05
70668;BMP280;58242;51.250;-1.118;2023-03-01T00:27:49;101889.75;;;12.05
70668;BMP280;58242;51.250;-1.118;2023-03-01T00:30:15;101884.66;;;12.03
70668;BMP280;58242;51.250;-1.118;2023-03-01T00:32:40;101884.97;;;12.02
70668;BMP280;58242;51.250;-1.118;2023-03-01T00:35:05;101894.91;;;12.01
70668;BMP280;58242;51.250;-1.118;2023-03-01T00:37:31;101896.78;;;12.01
70668;BMP280;58242;51.250;-1.118;2023-03-01T00:39:56;101899.47;;;12.01
70668;BMP280;58242;51.250;-1.118;2023-03-01T00:42:22;101892.78;;;11.98
70668;BMP280;58242;51.250;-1.118;2023-03-01T00:44:47;101886.34;;;11.99
70668;BMP280;58242;51.250;-1.118;2023-03-01T00:47:12;101889.53;;;12.01
70668;BMP280;58242;51.250;-1.118;2023-03-01T00:49:39;101886.53;;;12.03
70668;BMP280;58242;51.250;-1.118;2023-03-01T00:52:04;101888.44;;;12.02
70668;BMP280;58242;51.250;-1.118;2023-03-01T00:54:29;101887.41;;;11.98
70668;BMP280;58242;51.250;-1.118;2023-03-01T00:56:55;101894.47;;;11.95
70668;BMP280;58242;51.250;-1.118;2023-03-01T00:59:20;101898.00;;;11.90
70668;BMP280;58242;51.250;-1.118;2023-03-01T01:01:45;101888.63;;;11.88
70668;BMP280;58242;51.250;-1.118;2023-03-01T01:04:12;101889.75;;;11.87
70668;BMP280;58242;51.250;-1.118;2023-03-01T01:06:41;101883.28;;;11.88
70668;BMP280;58242;51.250;-1.118;2023-03-01T01:09:08;101887.06;;;11.87
70668;BMP280;58242;51.250;-1.118;2023-03-01T01:11:34;101890.81;;;11.86
70668;BMP280;58242;51.250;-1.118;2023-03-01T01:14:01;101885.47;;;11.86
70668;BMP280;58242;51.250;-1.118;2023-03-01T01:16:27;101881.19;;;11.85
70668;BMP280;58242;51.250;-1.118;2023-03-01T01:18:55;101885.47;;;11.86
70668;BMP280;58242;51.250;-1.118;2023-03-01T01:21:22;101887.34;;;11.85
70668;BMP280;58242;51.250;-1.118;2023-03-01T01:23:48;101883.06;;;11.84
70668;BMP280;58242;51.250;-1.118;2023-03-01T01:28:40;101885.53;;;11.81
70668;BMP280;58242;51.250;-1.118;2023-03-01T01:31:06;101886.59;;;11.80
70668;BMP280;58242;51.250;-1.118;2023-03-01T01:33:32;101881.25;;;11.80
70668;BMP280;58242;51.250;-1.118;2023-03-01T01:35:57;101882.03;;;11.80
70668;BMP280;58242;51.250;-1.118;2023-03-01T01:38:23;101885.25;;;11.82
70668;BMP280;58242;51.250;-1.118;2023-03-01T01:40:49;101881.47;;;11.83
70668;BMP280;58242;51.250;-1.118;2023-03-01T01:45:48;101866.97;;;11.84
70668;BMP280;58242;51.250;-1.118;2023-03-01T01:48:18;101871.84;;;11.82
70668;BMP280;58242;51.250;-1.118;2023-03-01T01:50:44;101880.97;;;11.81
70668;BMP280;58242;51.250;-1.118;2023-03-01T01:53:12;101878.28;;;11.81
70668;BMP280;58242;51.250;-1.118;2023-03-01T01:55:43;101876.69;;;11.80
70668;BMP280;58242;51.250;-1.118;2023-03-01T01:58:09;101878.72;;;11.70
70668;BMP280;58242;51.250;-1.118;2023-03-01T02:00:36;101880.22;;;11.76
70668;BMP280;58242;51.250;-1.118;2023-03-01T02:03:13;101870.31;;;11.77
70668;BMP280;58242;51.250;-1.118;2023-03-01T02:08:18;101851.06;;;11.75
70668;BMP280;58242;51.250;-1.118;2023-03-01T02:10:45;101849.19;;;11.75
70668;BMP280;58242;51.250;-1.118;2023-03-01T02:13:10;101849.19;;;11.75
70668;BMP280;58242;51.250;-1.118;2023-03-01T02:15:38;101841.94;;;11.76
70668;BMP280;58242;51.250;-1.118;2023-03-01T02:18:05;101846.50;;;11.75
70668;BMP280;58242;51.250;-1.118;2023-03-01T02:23:17;101830.47;;;11.70
70668;BMP280;58242;51.250;-1.118;2023-03-01T02:25:53;101828.06;;;11.69
70668;BMP280;58242;51.250;-1.118;2023-03-01T02:28:32;101827.84;;;11.65
70668;BMP280;58242;51.250;-1.118;2023-03-01T02:30:58;101824.69;;;11.63
70668;BMP280;58242;51.250;-1.118;2023-03-01T02:33:42;101824.16;;;11.62
70668;BMP280;58242;51.250;-1.118;2023-03-01T02:36:17;101821.00;;;11.60
70668;BMP280;58242;51.250;-1.118;2023-03-01T02:38:42;101816.22;;;11.57
70668;BMP280;58242;51.250;-1.118;2023-03-01T02:41:10;101822.34;;;11.57
70668;BMP280;58242;51.250;-1.118;2023-03-01T02:43:37;101816.50;;;11.55
70668;BMP280;58242;51.250;-1.118;2023-03-01T02:46:06;101807.66;;;11.55
70668;BMP280;58242;51.250;-1.118;2023-03-01T02:51:42;101809.53;;;11.54
70668;BMP280;58242;51.250;-1.118;2023-03-01T02:56:45;101807.66;;;11.55
70668;BMP280;58242;51.250;-1.118;2023-03-01T02:59:14;101808.47;;;11.55
70668;BMP280;58242;51.250;-1.118;2023-03-01T03:01:40;101809.25;;;11.56
70668;BMP280;58242;51.250;-1.118;2023-03-01T03:04:10;101797.75;;;11.55
70668;BMP280;58242;51.250;-1.118;2023-03-01T03:06:36;101793.19;;;11.56
70668;BMP280;58242;51.250;-1.118;2023-03-01T03:09:03;101795.56;;;11.57
70668;BMP280;58242;51.250;-1.118;2023-03-01T03:11:29;101790.78;;;11.54
70668;BMP280;58242;51.250;-1.118;2023-03-01T03:13:55;101789.97;;;11.54
70668;BMP280;58242;51.250;-1.118;2023-03-01T03:16:21;101783.34;;;11.51
70668;BMP280;58242;51.250;-1.118;2023-03-01T03:18:47;101788.97;;;11.50
70668;BMP280;58242;51.250;-1.118;2023-03-01T03:21:13;101790.56;;;11.51
70668;BMP280;58242;51.250;-1.118;2023-03-01T03:23:39;101787.88;;;11.51
70668;BMP280;58242;51.250;-1.118;2023-03-01T03:26:05;101797.00;;;11.50
70668;BMP280;58242;51.250;-1.118;2023-03-01T03:28:31;101796.78;;;11.46
70668;BMP280;58242;51.250;-1.118;2023-03-01T03:30:57;101789.84;;;11.46
70668;BMP280;58242;51.250;-1.118;2023-03-01T03:33:24;101787.72;;;11.43
70668;BMP280;58242;51.250;-1.118;2023-03-01T03:35:50;101793.09;;;11.43
70668;BMP280;58242;51.250;-1.118;2023-03-01T03:38:18;101791.78;;;11.40
70668;BMP280;58242;51.250;-1.118;2023-03-01T03:40:52;101787.50;;;11.39
70668;BMP280;58242;51.250;-1.118;2023-03-01T03:43:22;101789.69;;;11.37
70668;BMP280;58242;51.250;-1.118;2023-03-01T03:45:49;101781.94;;;11.36
70668;BMP280;58242;51.250;-1.118;2023-03-01T03:48:15;101782.25;;;11.34
70668;BMP280;58242;51.250;-1.118;2023-03-01T03:50:41;101783.31;;;11.33
70668;BMP280;58242;51.250;-1.118;2023-03-01T03:53:09;101779.03;;;11.32
70668;BMP280;58242;51.250;-1.118;2023-03-01T03:55:36;101779.31;;;11.31
70668;BMP280;58242;51.250;-1.118;2023-03-01T03:58:05;101775.88;;;11.30
70668;BMP280;58242;51.250;-1.118;2023-03-01T04:00:35;101775.06;;;11.30
70668;BMP280;58242;51.250;-1.118;2023-03-01T04:03:01;101772.66;;;11.28
70668;BMP280;58242;51.250;-1.118;2023-03-01T04:05:27;101773.47;;;11.29
70668;BMP280;58242;51.250;-1.118;2023-03-01T04:07:52;101770.25;;;11.27
70668;BMP280;58242;51.250;-1.118;2023-03-01T04:10:43;101761.47;;;11.27
70668;BMP280;58242;51.250;-1.118;2023-03-01T04:13:14;101760.66;;;11.26
70668;BMP280;58242;51.250;-1.118;2023-03-01T04:15:40;101764.66;;;11.24
70668;BMP280;58242;51.250;-1.118;2023-03-01T04:18:06;101757.22;;;11.21
70668;BMP280;58242;51.250;-1.118;2023-03-01T04:20:34;101756.13;;;11.22
70668;BMP280;58242;51.250;-1.118;2023-03-01T04:23:08;101753.72;;;11.20
70668;BMP280;58242;51.250;-1.118;2023-03-01T04:25:48;101758.28;;;11.20
70668;BMP280;58242;51.250;-1.118;2023-03-01T04:28:22;101750.25;;;11.20
70668;BMP280;58242;51.250;-1.118;2023-03-01T04:30:49;101758.81;;;11.22
70668;BMP280;58242;51.250;-1.118;2023-03-01T04:33:15;101738.19;;;11.22
70668;BMP280;58242;51.250;-1.118;2023-03-01T04:35:40;101757.72;;;11.23
70668;BMP280;58242;51.250;-1.118;2023-03-01T04:38:06;101749.69;;;11.23
70668;BMP280;58242;51.250;-1.118;2023-03-01T04:40:32;101751.28;;;11.24
70668;BMP280;58242;51.250;-1.118;2023-03-01T04:42:57;101750.47;;;11.23
70668;BMP280;58242;51.250;-1.118;2023-03-01T04:45:23;101754.53;;;11.21
70668;BMP280;58242;51.250;-1.118;2023-03-01T04:47:48;101749.50;;;11.19
70668;BMP280;58242;51.250;-1.118;2023-03-01T04:50:16;101742.31;;;11.15
70668;BMP280;58242;51.250;-1.118;2023-03-01T04:52:42;101742.63;;;11.09
70668;BMP280;58242;51.250;-1.118;2023-03-01T04:55:08;101741.34;;;11.06
70668;BMP280;58242;51.250;-1.118;2023-03-01T04:57:34;101738.44;;;11.03
70668;BMP280;58242;51.250;-1.118;2023-03-01T04:59:59;101731.50;;;11.02
70668;BMP280;58242;51.250;-1.118;2023-03-01T05:02:25;101735.56;;;10.99
70668;BMP280;58242;51.250;-1.118;2023-03-01T05:04:50;101741.97;;;10.98
70668;BMP280;58242;51.250;-1.118;2023-03-01T05:07:15;101734.22;;;10.97
70668;BMP280;58242;51.250;-1.118;2023-03-01T05:09:47;101739.34;;;10.93
70668;BMP280;58242;51.250;-1.118;2023-03-01T05:12:14;101732.94;;;10.94
70668;BMP280;58242;51.250;-1.118;2023-03-01T05:14:40;101731.34;;;10.93
70668;BMP280;58242;51.250;-1.118;2023-03-01T05:17:06;101732.13;;;10.94
70668;BMP280;58242;51.250;-1.118;2023-03-01T05:19:31;101732.44;;;10.93
70668;BMP280;58242;51.250;-1.118;2023-03-01T05:21:58;101727.84;;;10.93
70668;BMP280;58242;51.250;-1.118;2023-03-01T05:24:34;101735.13;;;10.93
70668;BMP280;58242;51.250;-1.118;2023-03-01T05:27:00;101730.84;;;10.92
70668;BMP280;58242;51.250;-1.118;2023-03-01T05:29:28;101727.09;;;10.93
70668;BMP280;58242;51.250;-1.118;2023-03-01T05:31:58;101727.56;;;10.94
70668;BMP280;58242;51.250;-1.118;2023-03-01T05:34:29;101727.31;;;10.96
70668;BMP280;58242;51.250;-1.118;2023-03-01T05:36:55;101729.19;;;10.95
70668;BMP280;58242;51.250;-1.118;2023-03-01T05:39:22;101717.41;;;10.96
70668;BMP280;58242;51.250;-1.118;2023-03-01T05:41:51;101721.38;;;10.99
70668;BMP280;58242;51.250;-1.118;2023-03-01T05:44:17;101721.19;;;10.91
70668;BMP280;58242;51.250;-1.118;2023-03-01T05:46:42;101713.41;;;10.94
70668;BMP280;58242;51.250;-1.118;2023-03-01T05:49:07;101719.28;;;10.96
70668;BMP280;58242;51.250;-1.118;2023-03-01T05:51:33;101721.66;;;10.97
70668;BMP280;58242;51.250;-1.118;2023-03-01T05:53:59;101719.56;;;10.94
70668;BMP280;58242;51.250;-1.118;2023-03-01T05:56:24;101720.94;;;10.92
70668;BMP280;58242;51.250;-1.118;2023-03-01T05:58:49;101719.59;;;10.90
70668;BMP280;58242;51.250;-1.118;2023-03-01T06:01:15;101715.34;;;10.89
70668;BMP280;58242;51.250;-1.118;2023-03-01T06:03:40;101712.97;;;10.87
70668;BMP280;58242;51.250;-1.118;2023-03-01T06:06:06;101715.91;;;10.86
70668;BMP280;58242;51.250;-1.118;2023-03-01T06:08:31;101714.34;;;10.85
70668;BMP280;58242;51.250;-1.118;2023-03-01T06:10:56;101707.38;;;10.84
70668;BMP280;58242;51.250;-1.118;2023-03-01T06:13:23;101709.25;;;10.83
70668;BMP280;58242;51.250;-1.118;2023-03-01T06:15:48;101715.41;;;10.84
70668;BMP280;58242;51.250;-1.118;2023-03-01T06:18:14;101708.47;;;10.83
70668;BMP280;58242;51.250;-1.118;2023-03-01T06:20:39;101711.13;;;10.83
70668;BMP280;58242;51.250;-1.118;2023-03-01T06:23:05;101714.03;;;10.86
70668;BMP280;58242;51.250;-1.118;2023-03-01T06:25:30;101714.34;;;10.85
70668;BMP280;58242;51.250;-1.118;2023-03-01T06:27:55;101722.06;;;10.86
70668;BMP280;58242;51.250;-1.118;2023-03-01T06:30:22;101715.91;;;10.86
70668;BMP280;58242;51.250;-1.118;2023-03-01T06:32:48;101721.25;;;10.86
70668;BMP280;58242;51.250;-1.118;2023-03-01T06:35:15;101717.22;;;10.88
70668;BMP280;58242;51.250;-1.118;2023-03-01T06:37:43;101710.00;;;10.89
70668;BMP280;58242;51.250;-1.118;2023-03-01T06:40:10;101715.84;;;10.91
70668;BMP280;58242;51.250;-1.118;2023-03-01T06:42:37;101714.78;;;10.92
70668;BMP280;58242;51.250;-1.118;2023-03-01T06:45:04;101717.16;;;10.93
70668;BMP280;58242;51.250;-1.118;2023-03-01T06:47:30;101720.06;;;10.96
70668;BMP280;58242;51.250;-1.118;2023-03-01T06:49:55;101727.81;;;10.98
70668;BMP280;58242;51.250;-1.118;2023-03-01T06:52:20;101728.31;;;11.00
70668;BMP280;58242;51.250;-1.118;2023-03-01T06:54:46;101729.63;;;11.02
70668;BMP280;58242;51.250;-1.118;2023-03-01T06:57:11;101730.91;;;11.05
70668;BMP280;58242;51.250;-1.118;2023-03-01T06:59:36;101734.91;;;11.07
70668;BMP280;58242;51.250;-1.118;2023-03-01T07:02:02;101734.91;;;11.07
70668;BMP280;58242;51.250;-1.118;2023-03-01T07:04:27;101744.25;;;11.10
70668;BMP280;58242;51.250;-1.118;2023-03-01T07:06:54;101742.09;;;11.11
70668;BMP280;58242;51.250;-1.118;2023-03-01T07:09:21;101734.81;;;11.12
70668;BMP280;58242;51.250;-1.118;2023-03-01T07:11:47;101741.50;;;11.14
70668;BMP280;58242;51.250;-1.118;2023-03-01T07:14:12;101732.41;;;11.15
70668;BMP280;58242;51.250;-1.118;2023-03-01T07:16:37;101742.81;;;11.17
70668;BMP280;58242;51.250;-1.118;2023-03-01T07:19:03;101742.81;;;11.17
70668;BMP280;58242;51.250;-1.118;2023-03-01T07:21:28;101737.19;;;11.18
70668;BMP280;58242;51.250;-1.118;2023-03-01T07:23:53;101739.53;;;11.20
70668;BMP280;58242;51.250;-1.118;2023-03-01T07:26:19;101738.19;;;11.22
70668;BMP280;58242;51.250;-1.118;2023-03-01T07:28:44;101746.50;;;11.21
70668;BMP280;58242;51.250;-1.118;2023-03-01T07:31:09;101740.06;;;11.22
70668;BMP280;58242;51.250;-1.118;2023-03-01T07:33:35;101747.31;;;11.21
70668;BMP280;58242;51.250;-1.118;2023-03-01T07:36:01;101756.63;;;11.24
70668;BMP280;58242;51.250;-1.118;2023-03-01T07:38:28;101738.69;;;11.24
70668;BMP280;58242;51.250;-1.118;2023-03-01T07:40:58;101746.44;;;11.26
70668;BMP280;58242;51.250;-1.118;2023-03-01T07:43:24;101741.91;;;11.26
70668;BMP280;58242;51.250;-1.118;2023-03-01T07:45:49;101746.16;;;11.27
70668;BMP280;58242;51.250;-1.118;2023-03-01T07:48:14;101761.16;;;11.28
70668;BMP280;58242;51.250;-1.118;2023-03-01T07:50:39;101750.16;;;11.29
70668;BMP280;58242;51.250;-1.118;2023-03-01T07:53:05;101746.41;;;11.30
70668;BMP280;58242;51.250;-1.118;2023-03-01T07:55:30;101752.53;;;11.31
70668;BMP280;58242;51.250;-1.118;2023-03-01T07:57:55;101743.44;;;11.32
70668;BMP280;58242;51.250;-1.118;2023-03-01T08:00:21;101746.91;;;11.32
70668;BMP280;58242;51.250;-1.118;2023-03-01T08:02:46;101739.41;;;11.34
70668;BMP280;58242;51.250;-1.118;2023-03-01T08:05:11;101740.97;;;11.35
70668;BMP280;58242;51.250;-1.118;2023-03-01T08:07:37;101737.72;;;11.38
70668;BMP280;58242;51.250;-1.118;2023-03-01T08:10:02;101735.28;;;11.42
70668;BMP280;58242;51.250;-1.118;2023-03-01T08:12:28;101729.81;;;11.46
70668;BMP280;58242;51.250;-1.118;2023-03-01T08:14:54;101731.38;;;11.52
70668;BMP280;58242;51.250;-1.118;2023-03-01T08:17:19;101733.72;;;11.54
70668;BMP280;58242;51.250;-1.118;2023-03-01T08:19:44;101735.84;;;11.57
70668;BMP280;58242;51.250;-1.118;2023-03-01T08:22:10;101735.75;;;11.62
70668;BMP280;58242;51.250;-1.118;2023-03-01T08:24:35;101724.97;;;11.66
70668;BMP280;58242;51.250;-1.118;2023-03-01T08:27:00;101734.03;;;11.70
70668;BMP280;58242;51.250;-1.118;2023-03-01T08:29:28;101729.16;;;11.72
70668;BMP280;58242;51.250;-1.118;2023-03-01T08:31:53;101735.63;;;11.71
70668;BMP280;58242;51.250;-1.118;2023-03-01T08:34:19;101731.56;;;11.74
70668;BMP280;58242;51.250;-1.118;2023-03-01T08:36:45;101732.84;;;11.76
70668;BMP280;58242;51.250;-1.118;2023-03-01T08:39:14;101735.53;;;11.76
70668;BMP280;58242;51.250;-1.118;2023-03-01T08:41:40;101727.22;;;11.78
70668;BMP280;58242;51.250;-1.118;2023-03-01T08:44:07;101729.09;;;11.77
70668;BMP280;58242;51.250;-1.118;2023-03-01T08:46:38;101736.53;;;11.80
70668;BMP280;58242;51.250;-1.118;2023-03-01T08:49:05;101732.78;;;11.81
70668;BMP280;58242;51.250;-1.118;2023-03-01T08:51:31;101727.41;;;11.81
70668;BMP280;58242;51.250;-1.118;2023-03-01T08:54:11;101723.66;;;11.82
70668;BMP280;58242;51.250;-1.118;2023-03-01T08:56:37;101723.06;;;11.85
70668;BMP280;58242;51.250;-1.118;2023-03-01T08:59:03;101724.00;;;11.94
70668;BMP280;58242;51.250;-1.118;2023-03-01T09:01:29;101721.66;;;12.05
70668;BMP280;58242;51.250;-1.118;2023-03-01T09:03:54;101724.34;;;12.18
70668;BMP280;58242;51.250;-1.118;2023-03-01T09:06:20;101718.63;;;12.38
70668;BMP280;58242;51.250;-1.118;2023-03-01T09:08:47;101713.41;;;12.59
70668;BMP280;58242;51.250;-1.118;2023-03-01T09:11:18;101705.97;;;12.82
70668;BMP280;58242;51.250;-1.118;2023-03-01T09:13:45;101690.91;;;13.08
70668;BMP280;58242;51.250;-1.118;2023-03-01T09:16:12;101694.75;;;13.41
70668;BMP280;58242;51.250;-1.118;2023-03-01T09:18:37;101689.28;;;13.68
70668;BMP280;58242;51.250;-1.118;2023-03-01T09:21:07;101686.34;;;13.99
70668;BMP280;58242;51.250;-1.118;2023-03-01T09:23:37;101692.69;;;14.24
70668;BMP280;58242;51.250;-1.118;2023-03-01T09:26:04;101679.66;;;14.55
70668;BMP280;58242;51.250;-1.118;2023-03-01T09:28:30;101671.78;;;15.05
70668;BMP280;58242;51.250;-1.118;2023-03-01T09:30:59;101676.06;;;15.80
70668;BMP280;58242;51.250;-1.118;2023-03-01T09:33:24;101673.56;;;16.45
70668;BMP280;58242;51.250;-1.118;2023-03-01T09:35:56;101671.00;;;17.13
70668;BMP280;58242;51.250;-1.118;2023-03-01T09:38:21;101651.88;;;17.58
70668;BMP280;58242;51.250;-1.118;2023-03-01T09:40:46;101660.47;;;17.91
70668;BMP280;58242;51.250;-1.118;2023-03-01T09:43:21;101663.53;;;18.33
70668;BMP280;58242;51.250;-1.118;2023-03-01T09:45:49;101653.66;;;18.72
70668;BMP280;58242;51.250;-1.118;2023-03-01T09:48:20;101657.94;;;18.84
70668;BMP280;58242;51.250;-1.118;2023-03-01T09:50:49;101660.63;;;18.61
70668;BMP280;58242;51.250;-1.118;2023-03-01T09:53:21;101667.22;;;18.29
70668;BMP280;58242;51.250;-1.118;2023-03-01T09:56:03;101660.16;;;17.93
70668;BMP280;58242;51.250;-1.118;2023-03-01T10:09:37;101654.94;;;15.91
70668;BMP280;58242;51.250;-1.118;2023-03-01T10:12:09;101665.13;;;15.69
70668;BMP280;58242;51.250;-1.118;2023-03-01T10:14:39;101660.56;;;15.53
70668;BMP280;58242;51.250;-1.118;2023-03-01T10:17:16;101651.03;;;15.39
70668;BMP280;58242;51.250;-1.118;2023-03-01T10:19:46;101648.81;;;15.24
70668;BMP280;58242;51.250;-1.118;2023-03-01T10:22:16;101651.81;;;15.06
70668;BMP280;58242;51.250;-1.118;2023-03-01T10:24:42;101648.59;;;14.88
70668;BMP280;58242;51.250;-1.118;2023-03-01T10:27:14;101651.56;;;14.70
70668;BMP280;58242;51.250;-1.118;2023-03-01T10:29:50;101653.88;;;14.54
70668;BMP280;58242;51.250;-1.118;2023-03-01T10:32:20;101648.00;;;14.53
70668;BMP280;58242;51.250;-1.118;2023-03-01T10:34:47;101646.09;;;14.53
70668;BMP280;58242;51.250;-1.118;2023-03-01T10:37:16;101640.56;;;14.50
70668;BMP280;58242;51.250;-1.118;2023-03-01T10:40:06;101639.59;;;14.46
70668;BMP280;58242;51.250;-1.118;2023-03-01T10:42:46;101627.31;;;14.78
70668;BMP280;58242;51.250;-1.118;2023-03-01T10:48:05;101625.03;;;15.59
70668;BMP280;58242;51.250;-1.118;2023-03-01T10:50:31;101626.13;;;15.66
70668;BMP280;58242;51.250;-1.118;2023-03-01T10:52:59;101626.94;;;15.67
70668;BMP280;58242;51.250;-1.118;2023-03-01T10:58:29;101625.97;;;15.38
70668;BMP280;58242;51.250;-1.118;2023-03-01T11:01:01;101616.19;;;15.25
70668;BMP280;58242;51.250;-1.118;2023-03-01T11:03:35;101613.47;;;15.09
70668;BMP280;58242;51.250;-1.118;2023-03-01T11:08:43;101601.47;;;14.60
70668;BMP280;58242;51.250;-1.118;2023-03-01T11:13:34;101609.63;;;14.31
70668;BMP280;58242;51.250;-1.118;2023-03-01T11:16:02;101594.38;;;14.18
70668;BMP280;58242;51.250;-1.118;2023-03-01T11:18:30;101597.34;;;14.08
70668;BMP280;58242;51.250;-1.118;2023-03-01T11:20:56;101594.16;;;14.06
70668;BMP280;58242;51.250;-1.118;2023-03-01T11:23:24;101590.38;;;14.07
70668;BMP280;58242;51.250;-1.118;2023-03-01T11:25:59;101590.72;;;14.14
70668;BMP280;58242;51.250;-1.118;2023-03-01T11:28:28;101585.19;;;14.19
70668;BMP280;58242;51.250;-1.118;2023-03-01T11:31:05;101584.56;;;14.22
70668;BMP280;58242;51.250;-1.118;2023-03-01T11:36:36;101584.72;;;14.17
70668;BMP280;58242;51.250;-1.118;2023-03-01T11:38:55;101582.66;;;14.14
70668;BMP280;58242;51.250;-1.118;2023-03-01T11:41:25;101583.28;;;14.11
70668;BMP280;58242;51.250;-1.118;2023-03-01T11:44:07;101582.31;;;14.07
70668;BMP280;58242;51.250;-1.118;2023-03-01T11:46:48;101586.41;;;14.05
70668;BMP280;58242;51.250;-1.118;2023-03-01T11:49:38;101579.44;;;14.04
70668;BMP280;58242;51.250;-1.118;2023-03-01T11:55:04;101573.16;;;14.08
70668;BMP280;58242;51.250;-1.118;2023-03-01T11:57:43;101566.50;;;14.14
70668;BMP280;58242;51.250;-1.118;2023-03-01T12:08:42;101540.31;;;14.36
70668;BMP280;58242;51.250;-1.118;2023-03-01T12:11:25;101544.47;;;14.50
70668;BMP280;58242;51.250;-1.118;2023-03-01T12:24:51;101519.66;;;14.94
70668;BMP280;58242;51.250;-1.118;2023-03-01T12:38:57;101491.38;;;15.50
70668;BMP280;58242;51.250;-1.118;2023-03-01T12:41:46;101483.63;;;15.48
70668;BMP280;58242;51.250;-1.118;2023-03-01T12:50:22;101471.16;;;15.19
70668;BMP280;58242;51.250;-1.118;2023-03-01T12:52:54;101477.19;;;15.16
70668;BMP280;58242;51.250;-1.118;2023-03-01T12:58:17;101462.47;;;14.97
70668;BMP280;58242;51.250;-1.118;2023-03-01T13:06:58;101455.19;;;14.73
70668;BMP280;58242;51.250;-1.118;2023-03-01T13:11:56;101461.50;;;14.85
70668;BMP280;58242;51.250;-1.118;2023-03-01T13:16:48;101444.72;;;15.05
70668;BMP280;58242;51.250;-1.118;2023-03-01T13:21:45;101435.19;;;15.15
70668;BMP280;58242;51.250;-1.118;2023-03-01T13:24:32;101431.06;;;15.18
70668;BMP280;58242;51.250;-1.118;2023-03-01T13:29:47;101420.72;;;15.36
70668;BMP280;58242;51.250;-1.118;2023-03-01T13:34:53;101408.56;;;15.58
70668;BMP280;58242;51.250;-1.118;2023-03-01T13:37:23;101408.72;;;15.62
70668;BMP280;58242;51.250;-1.118;2023-03-01T13:39:51;101392.84;;;15.60
70668;BMP280;58242;51.250;-1.118;2023-03-01T13:42:33;101401.94;;;15.56
70668;BMP280;58242;51.250;-1.118;2023-03-01T13:44:59;101397.81;;;15.50
70668;BMP280;58242;51.250;-1.118;2023-03-01T13:47:26;101412.59;;;15.44
70668;BMP280;58242;51.250;-1.118;2023-03-01T13:50:00;101404.06;;;15.34
70668;BMP280;58242;51.250;-1.118;2023-03-01T13:52:37;101407.25;;;15.28
70668;BMP280;58242;51.250;-1.118;2023-03-01T13:55:30;101400.47;;;15.22
70668;BMP280;58242;51.250;-1.118;2023-03-01T13:57:59;101396.84;;;15.18
70668;BMP280;58242;51.250;-1.118;2023-03-01T14:00:35;101395.91;;;15.14
70668;BMP280;58242;51.250;-1.118;2023-03-01T14:03:31;101382.31;;;15.03
70668;BMP280;58242;51.250;-1.118;2023-03-01T14:08:28;101392.31;;;14.94
70668;BMP280;58242;51.250;-1.118;2023-03-01T14:19:21;101363.94;;;14.96
70668;BMP280;58242;51.250;-1.118;2023-03-01T14:22:02;101362.53;;;14.99
70668;BMP280;58242;51.250;-1.118;2023-03-01T14:24:30;101364.28;;;14.95
70668;BMP280;58242;51.250;-1.118;2023-03-01T14:27:00;101355.72;;;14.93
70668;BMP280;58242;51.250;-1.118;2023-03-01T14:29:37;101356.38;;;14.90
70668;BMP280;58242;51.250;-1.118;2023-03-01T14:34:34;101357.16;;;14.74
70668;BMP280;58242;51.250;-1.118;2023-03-01T14:37:20;101349.88;;;14.66
70668;BMP280;58242;51.250;-1.118;2023-03-01T14:39:45;101346.44;;;14.57
70668;BMP280;58242;51.250;-1.118;2023-03-01T14:42:12;101339.94;;;14.50
70668;BMP280;58242;51.250;-1.118;2023-03-01T14:44:41;101343.75;;;14.49
70668;BMP280;58242;51.250;-1.118;2023-03-01T14:47:12;101344.84;;;14.48
70668;BMP280;58242;51.250;-1.118;2023-03-01T14:49:39;101333.63;;;14.46
70668;BMP280;58242;51.250;-1.118;2023-03-01T14:52:06;101325.84;;;14.45
70668;BMP280;58242;51.250;-1.118;2023-03-01T14:54:42;101330.94;;;14.46
70668;BMP280;58242;51.250;-1.118;2023-03-01T14:57:25;101320.81;;;14.43
70668;BMP280;58242;51.250;-1.118;2023-03-01T14:59:52;101326.19;;;14.43
70668;BMP280;58242;51.250;-1.118;2023-03-01T15:02:22;101323.66;;;14.47
70668;BMP280;58242;51.250;-1.118;2023-03-01T15:04:51;101322.38;;;14.53
70668;BMP280;58242;51.250;-1.118;2023-03-01T15:07:18;101318.22;;;14.55
70668;BMP280;58242;51.250;-1.118;2023-03-01T15:09:44;101309.22;;;14.59
70668;BMP280;58242;51.250;-1.118;2023-03-01T15:14:57;101311.28;;;14.54
70668;BMP280;58242;51.250;-1.118;2023-03-01T15:17:34;101305.28;;;14.49
70668;BMP280;58242;51.250;-1.118;2023-03-01T15:20:02;101304.47;;;14.48
70668;BMP280;58242;51.250;-1.118;2023-03-01T15:22:29;101302.28;;;14.50
70668;BMP280;58242;51.250;-1.118;2023-03-01T15:24:54;101296.72;;;14.55
70668;BMP280;58242;51.250;-1.118;2023-03-01T15:27:23;101303.81;;;14.59
70668;BMP280;58242;51.250;-1.118;2023-03-01T15:29:50;101293.22;;;14.63
70668;BMP280;58242;51.250;-1.118;2023-03-01T15:32:31;101280.69;;;14.67
70668;BMP280;58242;51.250;-1.118;2023-03-01T15:35:09;101288.16;;;14.70
70668;BMP280;58242;51.250;-1.118;2023-03-01T15:37:49;101283.88;;;14.69
70668;BMP280;58242;51.250;-1.118;2023-03-01T15:42:49;101269.31;;;14.70
70668;BMP280;58242;51.250;-1.118;2023-03-01T15:47:57;101269.63;;;14.68
70668;BMP280;58242;51.250;-1.118;2023-03-01T15:50:34;101267.72;;;14.69
70668;BMP280;58242;51.250;-1.118;2023-03-01T15:53:01;101263.28;;;14.72
70668;BMP280;58242;51.250;-1.118;2023-03-01T15:55:30;101256.72;;;14.82